Terminal Aerodrome Forecast
Issued by NWS Sterling, VA

Current Version | Previous Version | Graphics & Text | Print | Product List | Glossary On
Versions: 1 2 3 4 5 6 7 8 9 10 11 12 13 14 15 16 17 18 19 20 21 22 23 24 25
000
FTUS41 KLWX 092000 AAA
TAFDCA
TAF AMD
KDCA 092057Z 0921/1018 18007KT P6SM VCTS BKN050CB OVC250
     FM100200 VRB04KT P6SM FEW050 SCT130
     FM101000 36005KT P6SM SCT050 BKN130
     FM101700 09007KT P6SM BKN050 BKN130=

USA.gov is the U.S. government's official web portal to all federal, state and local government web resources and services.